• Join FlightAware (Why Join?)
  • Login
  • US Flag 
03:37AM EDT


 

Airport Tracker/Info


-or-


 

Live Flight TrackerFlight Track Log ✈ AAY893 ✈ 26-Jan-2014 ✈ KYNG - KPIE

Flight Track Log - Related Links

Times and Time Zones

All times are in EST time to prevent confusion due to time zone crossing. See the AAY893 flight status page for this flight to view local times or setup timezone preferences in your user account.

Time Position Orientation Groundspeed Altitude Reporting Facility
EST Latitude Longitude Course Direction KTS MPH feet Rate Location/Type
07:14PM 41.2433 -80.6422 97° East 182 209 3,100  Level Cleveland Center
07:15PM 41.2353 -80.5531 97° East 235 270 4,600 1,740 Climbing Cleveland Center
07:16PM 41.2006 -80.4592 116° Southeast 290 334 6,700 1,980 Climbing Cleveland Center
07:17PM 41.1269 -80.4078 152° Southeast 294 338 8,700 1,980 Climbing Cleveland Center
07:18PM 41.0486 -80.3583 155° Southeast 307 353 10,800 1,680 Climbing Cleveland Center
07:19PM 40.9575 -80.2997 154° Southeast 358 412 12,200 1,800 Climbing Cleveland Center
07:20PM 40.8558 -80.2336 154° Southeast 396 456 14,600 2,280 Climbing Cleveland Center
07:21PM 40.7508 -80.2053 168° South 398 458 16,900 2,400 Climbing Cleveland Center
07:22PM 40.6197 -80.1961 177° South 396 456 19,600 2,220 Climbing Cleveland Center
07:23PM 40.5069 -80.1903 178° South 403 464 21,600 1,800 Climbing Cleveland Center
07:24PM 40.3911 -80.1811 177° South 413 475 23,300 1,560 Climbing Cleveland Center
07:25PM 40.2814 -80.1750 178° South 426 490 24,800 1,500 Climbing Cleveland Center
07:26PM 40.1361 -80.1653 177° South 436 502 26,500 1,740 Climbing Cleveland Center
07:27PM 40.0169 -80.1558 177° South 435 501 28,400 1,800 Climbing Cleveland Center
07:28PM 39.9017 -80.1492 177° South 422 486 30,300 1,380 Climbing Cleveland Center
07:29PM 39.7903 -80.1406 177° South 409 471 31,300 960 Climbing Cleveland Center
07:30PM 39.6775 -80.1331 177° South 406 467 32,300 780 Climbing Cleveland Center
07:31PM 39.5650 -80.1256 177° South 406 467 33,000 420 Climbing Cleveland Center
07:32PM 39.4806 -80.1222 178° South 402 463 33,000  Level Washington Center
07:33PM 39.3683 -80.1153 177° South 402 463 33,000  Level Washington Center
07:34PM 39.2539 -80.1081 177° South 407 468 33,000  Level Washington Center
07:35PM 39.1417 -80.1011 177° South 407 468 33,000  Level Washington Center
07:36PM 39.0500 -80.0928 176° South 407 468 33,000  Level Washington Center
07:37PM 38.9144 -80.0953 181° South 407 468 33,000  Level Washington Center
07:38PM 38.8089 -80.1286 194° South 397 457 33,000  Level Washington Center
07:39PM 38.7097 -80.1653 196° South 386 444 33,000  Level Washington Center
07:40PM 38.6039 -80.2011 195° South 386 444 33,000  Level Washington Center
07:41PM 38.5111 -80.2325 195° South 386 444 33,000  Level Washington Center
07:42PM 38.4053 -80.2708 196° South 386 444 33,000 240 Level Washington Center
07:43PM 38.3039 -80.3042 194° South 386 444 33,500 420 Climbing Washington Center
07:44PM 38.2003 -80.3428 196° South 386 444 33,900 240 Climbing Washington Center
07:45PM 38.0864 -80.3725 192° South 386 444 34,000  Climbing Washington Center
07:46PM 37.9814 -80.3919 188° South 381 438 34,000  Level Washington Center
07:47PM 37.8722 -80.4086 187° South 387 445 34,000  Level Washington Center
07:48PM 37.7756 -80.4261 188° South 392 451 34,000  Level Washington Center
07:49PM 37.6703 -80.4458 188° South 391 450 34,000  Level Washington Center
07:51PM 37.4661 -80.4781 187° South 392 451 34,000  Level Atlanta Center
07:52PM 37.3603 -80.4933 187° South 387 445 34,000  Level Atlanta Center
07:53PM 37.2503 -80.5111 187° South 387 445 34,000  Level Atlanta Center
07:54PM 37.1444 -80.5289 188° South 387 445 34,000  Level Atlanta Center
07:55PM 37.0242 -80.5472 187° South 387 445 34,000  Level Atlanta Center
07:56PM 36.9142 -80.5653 187° South 387 445 34,000  Level Atlanta Center
07:57PM 36.8042 -80.5831 187° South 393 452 34,000  Level Atlanta Center
07:58PM 36.6983 -80.6006 188° South 393 452 34,000  Level Atlanta Center
07:59PM 36.5928 -80.6308 193° South 388 447 34,000  Level Atlanta Center
08:00PM 36.4875 -80.6689 196° South 388 447 34,000  Level Atlanta Center
08:01PM 36.3800 -80.7017 194° South 393 452 34,000  Level Atlanta Center
08:02PM 36.2767 -80.7397 197° South 393 452 34,000  Level Atlanta Center
08:03PM 36.1733 -80.7747 195° South 393 452 34,000  Level Atlanta Center
08:04PM 36.0658 -80.8072 194° South 393 452 34,000  Level Atlanta Center
08:05PM 35.9603 -80.8447 196° South 393 452 34,000  Level Atlanta Center
08:06PM 35.8569 -80.8797 195° South 393 452 34,000  Level Atlanta Center
08:07PM 35.7494 -80.9172 196° South 393 452 34,000  Level Atlanta Center
08:08PM 35.6522 -80.9489 195° South 393 452 34,000  Level Atlanta Center
08:09PM 35.5447 -80.9836 195° South 393 452 34,000  Level Atlanta Center
08:10PM 35.4328 -81.0183 194° South 399 459 34,000  Level Atlanta Center
08:11PM 35.3272 -81.0553 196° South 399 459 34,000  Level Atlanta Center
08:12PM 35.2197 -81.0922 196° South 399 459 34,000  Level Atlanta Center
08:13PM 35.1142 -81.1289 196° South 394 453 34,000  Level Atlanta Center
08:16PM 34.7664 -81.2397 195° South 402 463 34,000  Level Jacksonville Center
08:17PM 34.6586 -81.2772 196° South 402 463 34,000  Level Jacksonville Center
08:18PM 34.5483 -81.3119 195° South 402 463 34,000  Level Jacksonville Center
08:19PM 34.4444 -81.3442 194° South 402 463 34,000  Level Jacksonville Center
08:20PM 34.3386 -81.3786 195° South 397 457 34,000  Level Jacksonville Center
08:21PM 34.2303 -81.4108 194° South 397 457 34,000  Level Jacksonville Center
08:22PM 34.1244 -81.4478 196° South 397 457 34,000  Level Jacksonville Center
08:23PM 34.0142 -81.4819 194° South 397 457 34,000 -60 Level Jacksonville Center
08:24PM 33.8894 -81.5067 189° South 407 468 33,900  Descending Jacksonville Center
08:25PM 33.7894 -81.5256 189° South 412 474 34,000  Climbing Jacksonville Center
08:26PM 33.6769 -81.5497 190° South 412 474 34,000  Level Jacksonville Center
08:27PM 33.5644 -81.5714 189° South 412 474 34,000  Level Jacksonville Center
08:28PM 33.4542 -81.5931 189° South 412 474 34,000  Level Jacksonville Center
08:29PM 33.3417 -81.6169 190° South 412 474 34,000  Level Jacksonville Center
08:30PM 33.2311 -81.6411 190° South 412 474 34,000 -60 Level Jacksonville Center
08:31PM 33.1083 -81.6675 190° South 412 474 33,900  Descending Jacksonville Center
08:32PM 33.0083 -81.6861 189° South 412 474 34,000  Climbing Jacksonville Center
08:33PM 32.8978 -81.7075 189° South 412 474 34,000  Level Jacksonville Center
08:34PM 32.7853 -81.7311 190° South 412 474 34,000  Level Jacksonville Center
08:35PM 32.6769 -81.7547 190° South 407 468 34,000  Level Jacksonville Center
08:36PM 32.5542 -81.7786 189° South 407 468 34,000  Level Jacksonville Center
08:37PM 32.4519 -81.7994 190° South 406 467 34,000  Level Jacksonville Center
08:38PM 32.3311 -81.8281 191° South 412 474 34,000  Level Jacksonville Center
08:39PM 32.2186 -81.8489 189° South 412 474 34,000  Level Jacksonville Center
08:40PM 32.1186 -81.8697 190° South 412 474 34,000  Level Jacksonville Center
08:41PM 31.9956 -81.8906 188° South 407 468 34,000  Level Jacksonville Center
08:42PM 31.8872 -81.9139 190° South 405 466 34,000  Level Jacksonville Center
08:43PM 31.7747 -81.9369 190° South 412 474 34,000  Level Jacksonville Center
08:44PM 31.6661 -81.9578 189° South 407 468 34,000  Level Jacksonville Center
08:45PM 31.5639 -81.9783 190° South 412 474 34,000  Level Jacksonville Center
08:46PM 31.4411 -82.0014 189° South 412 474 34,000 -60 Level Jacksonville Center
08:47PM 31.3283 -82.0317 193° South 412 474 33,900 -60 Descending Jacksonville Center
08:48PM 31.2178 -82.0497 188° South 412 474 33,900  Level Jacksonville Center
08:49PM 31.1094 -82.0675 188° South 407 468 33,900  Level Jacksonville Center
08:50PM 31.0072 -82.0878 190° South 407 468 33,900  Level Jacksonville Center
08:51PM 30.8989 -82.1081 189° South 412 474 33,900  Level Jacksonville Center
08:52PM 30.7903 -82.1308 190° South 407 468 33,900  Level Jacksonville Center
08:53PM 30.6819 -82.1511 189° South 407 468 33,900  Level Jacksonville Center
08:54PM 30.5736 -82.1711 189° South 407 468 33,900  Level Jacksonville Center
08:55PM 30.4525 -82.1914 188° South 407 468 33,900  Level Jacksonville Center
08:56PM 30.3400 -82.2139 190° South 413 475 33,900  Level Jacksonville Center
08:57PM 30.2294 -82.2339 189° South 413 475 33,900  Level Jacksonville Center
08:58PM 30.1167 -82.2561 190° South 411 473 33,900  Level Jacksonville Center
08:59PM 30.0167 -82.2786 191° South 411 473 33,900 -600 Level Jacksonville Center
09:00PM 29.8997 -82.3031 190° South 411 473 32,800 -1,680 Descending Jacksonville Center
09:01PM 29.7872 -82.3206 188° South 411 473 30,600 -2,160 Descending Jacksonville Center
09:02PM 29.6767 -82.3428 190° South 411 473 28,500 -2,220 Descending Jacksonville Center
09:03PM 29.5597 -82.3553 185° South 411 473 26,200 -2,280 Descending Jacksonville Center
09:04PM 29.4364 -82.3417 175° South 422 486 24,000 -2,100 Descending Jacksonville Center
09:05PM 29.3175 -82.3281 174° South 435 501 22,000 -2,040 Descending Jacksonville Center
09:06PM 29.2006 -82.3122 173° South 441 507 20,000 -2,040 Descending Jacksonville Center
09:07PM 29.0878 -82.3008 175° South 428 493 18,000 -1,980 Descending Jacksonville Center
09:08PM 28.9750 -82.2872 174° South 416 479 16,100 -2,100 Descending Jacksonville Center
09:09PM 28.8539 -82.2714 173° South 410 472 13,900 -1,260 Descending Jacksonville Center
09:11PM 28.7333 -82.3167 198° South 306 352 12,900 -720 Descending Tampa TRACON
09:12PM 28.6667 -82.3667 213° Southwest 266 306 12,100 -900 Descending Tampa TRACON
09:13PM 28.6167 -82.4333 229° Southwest 266 306 11,200 -1,140 Descending Tampa TRACON
09:14PM 28.5500 -82.4833 213° Southwest 265 305 9,900 -1,500 Descending Tampa TRACON
09:15PM 28.5000 -82.5333 221° Southwest 253 291 8,200 -1,680 Descending Tampa TRACON
09:16PM 28.4500 -82.5833 221° Southwest 248 285 6,600 -1,140 Descending Tampa TRACON
09:17PM 28.3833 -82.6333 213° Southwest 248 285 6,000 -600 Descending Tampa TRACON
09:18PM 28.3333 -82.6667 210° Southwest 244 281 5,500 -1,140 Descending Tampa TRACON
09:19PM 28.2667 -82.7000 204° Southwest 250 288 3,800 -1,260 Descending Tampa TRACON
09:20PM 28.2000 -82.7333 204° Southwest 245 282 3,000 -420 Descending Tampa TRACON
09:21PM 28.1333 -82.7333 180° South 243 280 3,000 -300 Level Tampa TRACON
09:22PM 28.0833 -82.7167 164° South 188 216 2,500 -480 Descending Tampa TRACON
09:23PM 28.0333 -82.7167 180° South 143 165 2,100 -540 Descending Tampa TRACON
09:24PM 28.0000 -82.7000 156° South 136 157 1,500 -600 Descending Tampa TRACON
09:25PM 27.9667 -82.7000 180° South 127 146 900 -600 Descending Tampa TRACON